Hampton, Canada
Current Conditions -  °F | °C
As of 1:00 AM on Tuesday 23 Dec 2014 (Local Time) from CYSJ Reporting Station
Overcast Overcast  
Wind Chill: 21°   Ceiling: 5000
Heat Index: 28°   Visibility: 15mi
Dew Point: 25°   Wind: 7mph
Humidity: 86%   Direction: 110°ESE
Pressure: 30.45"   Gusts: NA
Location:  45.53°N, 65.83°W
Report Text: CYSJ 230500Z 11006KT 15SM SCT025 OVC050 M02/M04 A3045 RMK SC3SC5 SLP315
Loading
Personal Weather Stations






























Interactive Weather Map New forecast layout! Learn more

10-Day Weather Forecast

Advertisements
Track Severe Weather on mobile